KPIB

Hattiesburg / Laurel Regional Airport

Hattiesburg-Laurel, Mississippi, USA
METAR KPIB 161756Z AUTO VRB03KT 10SM CLR 13/03 A3032 RMK AO2 SLP270 T01280033 10128 21011 58013
Observed Flight Rules
Jan-16 @ 17:56 UTC (42 minutes ago) Visual Flight Rules
Wind Visibility Clouds
Variable at 3 knots 10 miles
  • Clear skies
Temperatures Readings
Current 13°C / 55°F
Dewpoint 3°C / 37°F
Humidity 51%
Altimeter 30.32" Hg
Pressure 1027 hPa
Elevation 91
METAR KPIB 161756Z AUTO VRB03KT 10SM CLR 13/03 A3032 RMK AO2 SLP270 T01280033 10128 21011 58013
Observed Flight Rules
Jan-16 @ 17:56 UTC
(42 minutes ago)
VFR
Wind Visibility
Variable at 3 knots 10 miles
Clouds
  • Clear skies
Temperature Dewpoint
13°C / 55°F 3°C / 37°F
Humidity Altimeter Pressure
51% 30.32" Hg 1027 hPa